createdAt,value
2017-04-13T00:00:20.550Z,21.52
2017-04-13T00:01:01.124Z,21.59
2017-04-13T00:01:41.708Z,21.53
2017-04-13T00:02:22.297Z,21.52
2017-04-13T00:04:14.916Z,21.53
2017-04-13T00:04:55.495Z,21.56
2017-04-13T00:05:36.074Z,21.49
2017-04-13T00:06:16.657Z,21.5
2017-04-13T00:07:54.605Z,21.64
2017-04-13T00:08:35.200Z,21.52
2017-04-13T00:09:15.785Z,21.49
2017-04-13T00:09:56.418Z,21.53
2017-04-13T00:10:37.003Z,21.53
2017-04-13T00:11:17.567Z,21.56
2017-04-13T00:11:58.151Z,21.52
2017-04-13T00:12:38.827Z,21.61
2017-04-13T00:13:19.413Z,21.5
2017-04-13T00:14:00.001Z,21.49
2017-04-13T00:14:40.581Z,21.53
2017-04-13T00:15:21.156Z,21.58
2017-04-13T00:16:01.737Z,21.44
2017-04-13T00:16:42.319Z,21.58
2017-04-13T00:17:22.907Z,21.53
2017-04-13T00:18:03.489Z,21.53
2017-04-13T00:18:44.062Z,21.53
2017-04-13T00:19:24.638Z,21.53
2017-04-13T00:20:05.210Z,21.44
2017-04-13T00:20:45.794Z,21.44
2017-04-13T00:21:26.377Z,21.46
2017-04-13T00:22:06.961Z,21.49
2017-04-13T00:22:47.535Z,21.44
2017-04-13T00:23:28.120Z,21.53
2017-04-13T00:24:08.690Z,21.5
2017-04-13T00:24:49.282Z,21.44
2017-04-13T00:25:29.865Z,21.49
2017-04-13T00:26:10.441Z,21.52
2017-04-13T00:26:51.017Z,21.5
2017-04-13T00:27:31.602Z,21.37
2017-04-13T00:29:08.976Z,21.47
2017-04-13T00:30:04.463Z,21.38
2017-04-13T00:30:45.045Z,21.47
2017-04-13T00:31:25.629Z,21.4
2017-04-13T00:32:06.213Z,21.38
2017-04-13T00:32:46.793Z,21.46
2017-04-13T00:33:27.389Z,21.43
2017-04-13T00:34:07.967Z,21.49
2017-04-13T00:34:48.533Z,21.46
2017-04-13T00:35:35.743Z,21.46
2017-04-13T00:36:16.323Z,21.38
2017-04-13T00:36:56.910Z,21.42
2017-04-13T00:37:37.496Z,21.44
2017-04-13T00:38:18.078Z,21.37
2017-04-13T00:38:58.658Z,21.43
2017-04-13T00:39:39.230Z,21.38
2017-04-13T00:40:19.810Z,21.44
2017-04-13T00:41:00.390Z,21.35
2017-04-13T00:41:40.972Z,21.43
2017-04-13T00:42:21.560Z,21.46
2017-04-13T00:43:02.141Z,21.37
2017-04-13T00:43:42.719Z,21.49
2017-04-13T00:44:23.300Z,21.42
2017-04-13T00:45:03.877Z,21.46
2017-04-13T00:45:44.451Z,21.42
2017-04-13T00:46:25.048Z,21.38
2017-04-13T00:47:05.618Z,21.4
2017-04-13T00:47:46.208Z,21.38
2017-04-13T00:48:26.784Z,21.38
2017-04-13T00:49:07.363Z,21.43
2017-04-13T00:49:47.941Z,21.47
2017-04-13T00:50:28.528Z,21.44
2017-04-13T00:51:09.110Z,21.4
2017-04-13T00:51:49.698Z,21.49
2017-04-13T00:52:30.282Z,21.35
2017-04-13T00:53:10.853Z,21.42
2017-04-13T00:53:51.435Z,21.43
2017-04-13T00:54:32.019Z,21.46
2017-04-13T00:55:12.600Z,21.37
2017-04-13T00:56:49.969Z,21.38
2017-04-13T00:57:30.548Z,21.35
2017-04-13T00:58:11.133Z,21.35
2017-04-13T00:58:51.707Z,21.34
2017-04-13T00:59:32.291Z,21.4
2017-04-13T01:00:12.869Z,21.43
2017-04-13T01:00:53.438Z,21.34
2017-04-13T01:01:34.068Z,21.37
2017-04-13T01:02:14.601Z,21.37
2017-04-13T01:02:55.181Z,21.44
2017-04-13T01:03:35.758Z,21.38
2017-04-13T01:04:16.333Z,21.34
2017-04-13T01:04:56.910Z,21.49
2017-04-13T01:05:37.488Z,21.44
2017-04-13T01:06:18.070Z,21.38
2017-04-13T01:06:58.655Z,21.42
2017-04-13T01:07:39.235Z,21.46
2017-04-13T01:08:19.816Z,21.47
2017-04-13T01:09:00.398Z,21.47
2017-04-13T01:09:40.985Z,21.46
2017-04-13T01:10:21.570Z,21.44
2017-04-13T01:11:02.150Z,21.42
2017-04-13T01:11:42.733Z,21.44
2017-04-13T01:12:23.313Z,21.43
2017-04-13T01:13:03.909Z,21.38
2017-04-13T01:13:44.481Z,21.42
2017-04-13T01:14:25.066Z,21.4
2017-04-13T01:15:05.646Z,21.42
2017-04-13T01:15:46.209Z,21.49
2017-04-13T01:16:26.790Z,21.46
2017-04-13T01:17:07.373Z,21.49
2017-04-13T01:17:47.953Z,21.5
2017-04-13T01:18:28.528Z,21.52
2017-04-13T01:19:09.111Z,21.5
2017-04-13T01:19:49.692Z,21.5
2017-04-13T01:20:30.271Z,21.52
2017-04-13T01:21:10.850Z,21.5
2017-04-13T01:21:51.429Z,21.58
2017-04-13T01:22:32.016Z,21.52
2017-04-13T01:23:12.598Z,21.49
2017-04-13T01:23:53.176Z,21.49
2017-04-13T01:24:33.751Z,21.5
2017-04-13T01:25:14.343Z,21.56
2017-04-13T01:27:12.052Z,21.5
2017-04-13T01:27:52.646Z,21.46
2017-04-13T01:28:33.230Z,21.52
2017-04-13T01:29:13.815Z,21.53
2017-04-13T01:29:54.391Z,21.49
2017-04-13T01:30:34.973Z,21.47
2017-04-13T01:31:15.550Z,21.46
2017-04-13T01:31:56.133Z,21.5
2017-04-13T01:32:36.709Z,21.43
2017-04-13T01:33:17.282Z,21.52
2017-04-13T01:33:57.865Z,21.47
2017-04-13T01:34:38.446Z,21.5
2017-04-13T01:35:19.027Z,21.47
2017-04-13T01:35:59.613Z,21.49
2017-04-13T01:36:40.191Z,21.52
2017-04-13T01:37:20.777Z,21.53
2017-04-13T01:38:01.361Z,21.52
2017-04-13T01:38:41.946Z,21.46
2017-04-13T01:39:22.525Z,21.47
2017-04-13T01:40:03.108Z,21.52
2017-04-13T01:40:43.696Z,21.5
2017-04-13T01:41:24.281Z,21.49
2017-04-13T01:42:04.864Z,21.5
2017-04-13T01:42:45.445Z,21.5
2017-04-13T01:43:26.033Z,21.47
2017-04-13T01:44:06.651Z,21.44
2017-04-13T01:44:47.200Z,21.49
2017-04-13T01:45:27.786Z,21.5
2017-04-13T01:46:08.372Z,21.47
2017-04-13T01:46:48.951Z,21.47
2017-04-13T01:47:29.539Z,21.61
2017-04-13T01:48:10.124Z,21.49
2017-04-13T01:48:50.707Z,21.52
2017-04-13T01:49:31.292Z,21.44
2017-04-13T01:50:11.880Z,21.56
2017-04-13T01:50:52.465Z,21.52
2017-04-13T01:51:33.046Z,21.54
2017-04-13T01:52:13.627Z,21.46
2017-04-13T01:52:54.214Z,21.47
2017-04-13T01:53:34.794Z,21.52
2017-04-13T01:54:15.376Z,21.47
2017-04-13T01:54:55.960Z,21.47
2017-04-13T01:55:36.534Z,21.53
2017-04-13T01:56:17.118Z,21.5
2017-04-13T01:56:57.699Z,21.47
2017-04-13T01:57:38.297Z,21.54
2017-04-13T01:58:18.885Z,21.53
2017-04-13T01:58:59.467Z,21.46
2017-04-13T01:59:40.048Z,21.47
2017-04-13T02:00:20.636Z,21.54
2017-04-13T02:01:01.213Z,21.46
2017-04-13T02:01:41.797Z,21.5
2017-04-13T02:02:22.379Z,21.52
2017-04-13T02:03:02.970Z,21.52
2017-04-13T02:03:43.585Z,21.52
2017-04-13T02:04:24.134Z,21.49
2017-04-13T02:05:04.721Z,21.47
2017-04-13T02:05:45.304Z,21.46
2017-04-13T02:06:25.887Z,21.46
2017-04-13T02:07:06.469Z,21.46
2017-04-13T02:07:47.053Z,21.54
2017-04-13T02:08:27.642Z,21.5
2017-04-13T02:10:05.004Z,21.56
2017-04-13T02:10:45.583Z,21.43
2017-04-13T02:11:26.168Z,21.43
2017-04-13T02:12:06.745Z,21.49
2017-04-13T02:12:47.335Z,21.46
2017-04-13T02:13:27.916Z,21.46
2017-04-13T02:14:08.503Z,21.43
2017-04-13T02:14:49.121Z,21.52
2017-04-13T02:15:29.659Z,21.52
2017-04-13T02:16:10.237Z,21.44
2017-04-13T02:16:50.822Z,21.46
2017-04-13T02:17:31.400Z,21.42
2017-04-13T02:18:11.985Z,21.52
2017-04-13T02:18:52.566Z,21.53
2017-04-13T02:19:33.146Z,21.43
2017-04-13T02:20:13.733Z,21.52
2017-04-13T02:20:54.319Z,21.53
2017-04-13T02:21:34.901Z,21.5
2017-04-13T02:22:15.491Z,21.46
2017-04-13T02:22:56.052Z,21.54
2017-04-13T02:23:36.634Z,21.46
2017-04-13T02:24:17.219Z,21.52
2017-04-13T02:24:57.795Z,21.49
2017-04-13T02:25:38.383Z,21.5
2017-04-13T02:26:18.960Z,21.5
2017-04-13T02:26:59.544Z,21.43
2017-04-13T02:27:40.131Z,21.49
2017-04-13T02:28:20.707Z,21.46
2017-04-13T02:29:01.292Z,21.44
2017-04-13T02:29:41.878Z,21.43
2017-04-13T02:30:22.471Z,21.47
2017-04-13T02:31:03.049Z,21.47
2017-04-13T02:31:43.634Z,21.49
2017-04-13T02:32:24.218Z,21.49
2017-04-13T02:33:04.796Z,21.52
2017-04-13T02:33:45.390Z,21.5
2017-04-13T02:34:25.983Z,21.49
2017-04-13T02:35:06.545Z,21.46
2017-04-13T02:35:47.128Z,21.49
2017-04-13T02:36:27.699Z,21.47
2017-04-13T02:37:08.281Z,21.43
2017-04-13T02:37:48.849Z,21.44
2017-04-13T02:38:29.434Z,21.46
2017-04-13T02:39:10.018Z,21.4
2017-04-13T02:39:50.592Z,21.53
2017-04-13T02:40:31.180Z,21.35
2017-04-13T02:41:11.753Z,21.43
2017-04-13T02:41:52.326Z,21.4
2017-04-13T02:42:32.912Z,21.35
2017-04-13T02:43:13.494Z,21.37
2017-04-13T02:43:54.073Z,21.34
2017-04-13T02:44:34.652Z,21.38
2017-04-13T02:45:15.231Z,21.34
2017-04-13T02:45:55.825Z,21.35
2017-04-13T02:46:36.406Z,21.35
2017-04-13T02:47:16.996Z,21.44
2017-04-13T02:47:57.578Z,21.34
2017-04-13T02:48:38.159Z,21.34
2017-04-13T02:49:18.744Z,21.35
2017-04-13T02:49:59.332Z,21.37
2017-04-13T02:50:39.909Z,21.27
2017-04-13T02:51:20.496Z,21.29
2017-04-13T02:52:01.076Z,21.34
2017-04-13T02:52:41.658Z,21.27
2017-04-13T02:53:22.236Z,21.32
2017-04-13T02:54:02.805Z,21.25
2017-04-13T02:54:43.393Z,21.22
2017-04-13T02:55:23.967Z,21.32
2017-04-13T02:56:04.559Z,21.32
2017-04-13T02:56:45.482Z,21.27
2017-04-13T02:57:26.073Z,21.29
2017-04-13T02:58:06.650Z,21.32
2017-04-13T02:59:44.013Z,21.35
2017-04-13T03:00:24.592Z,21.19
2017-04-13T03:01:05.175Z,21.29
2017-04-13T03:01:45.755Z,21.25
2017-04-13T03:02:26.343Z,21.21
2017-04-13T03:03:06.927Z,21.21
2017-04-13T03:03:47.503Z,21.29
2017-04-13T03:04:28.083Z,21.32
2017-04-13T03:05:08.670Z,21.31
2017-04-13T03:05:49.242Z,21.17
2017-04-13T03:06:29.824Z,21.28
2017-04-13T03:07:10.400Z,21.14
2017-04-13T03:07:51.001Z,21.22
2017-04-13T03:08:31.568Z,21.25
2017-04-13T03:09:12.150Z,21.22
2017-04-13T03:09:52.739Z,21.21
2017-04-13T03:10:33.308Z,21.29
2017-04-13T03:12:20.818Z,21.25
2017-04-13T03:13:01.396Z,21.19
2017-04-13T03:13:41.973Z,21.21
2017-04-13T03:14:22.551Z,21.25
2017-04-13T03:15:03.127Z,21.22
2017-04-13T03:15:59.387Z,21.25
2017-04-13T03:16:39.961Z,21.24
2017-04-13T03:17:20.542Z,21.17
2017-04-13T03:18:01.162Z,21.19
2017-04-13T03:18:41.839Z,21.19
2017-04-13T03:19:22.467Z,21.17
2017-04-13T03:20:03.040Z,21.25
2017-04-13T03:20:43.673Z,21.19
2017-04-13T03:21:24.270Z,21.14
2017-04-13T03:22:04.848Z,21.19
2017-04-13T03:22:45.644Z,21.21
2017-04-13T03:23:26.356Z,21.16
2017-04-13T03:24:07.048Z,21.19
2017-04-13T03:24:47.963Z,21.21
2017-04-13T03:25:28.804Z,21.14
2017-04-13T03:26:09.746Z,21.13
2017-04-13T03:26:50.327Z,21.09
2017-04-13T03:27:31.201Z,21.13
2017-04-13T03:28:11.989Z,21.16
2017-04-13T03:28:52.936Z,21.17
2017-04-13T03:29:33.932Z,21.12
2017-04-13T03:30:15.006Z,21.16
2017-04-13T03:30:56.029Z,21.17
2017-04-13T03:31:37.119Z,21.14
2017-04-13T03:32:17.905Z,21.21
2017-04-13T03:32:58.481Z,21.19
2017-04-13T03:33:39.524Z,21.1
2017-04-13T03:34:20.303Z,21.14
2017-04-13T03:35:00.898Z,21.17
2017-04-13T03:35:41.476Z,21.16
2017-04-13T03:36:22.160Z,21.14
2017-04-13T03:37:02.822Z,21.16
2017-04-13T03:37:43.405Z,21.04
2017-04-13T03:38:24.227Z,21.19
2017-04-13T03:39:05.172Z,21.14
2017-04-13T03:39:45.758Z,21.13
2017-04-13T03:40:26.339Z,20.99
2017-04-13T03:41:07.032Z,21.17
2017-04-13T03:41:47.611Z,21.16
2017-04-13T03:42:28.190Z,21.16
2017-04-13T03:43:08.763Z,21.12
2017-04-13T03:43:49.342Z,21.13
2017-04-13T03:44:29.948Z,21.07
2017-04-13T03:45:10.525Z,21.13
2017-04-13T03:45:51.278Z,21.07
2017-04-13T03:46:31.922Z,21.07
2017-04-13T03:47:12.502Z,21.07
2017-04-13T03:47:53.087Z,21.1
2017-04-13T03:48:33.680Z,21.09
2017-04-13T03:49:14.267Z,21.03
2017-04-13T03:49:54.851Z,21.12
2017-04-13T03:50:35.427Z,21.06
2017-04-13T03:51:16.008Z,21.07
2017-04-13T03:51:56.589Z,21.07
2017-04-13T03:52:37.165Z,21.17
2017-04-13T03:53:17.757Z,21.06
2017-04-13T03:53:58.347Z,21.14
2017-04-13T03:54:38.920Z,21.07
2017-04-13T03:57:20.763Z,21.17
2017-04-13T03:58:01.341Z,21.21
2017-04-13T03:58:41.925Z,21.1
2017-04-13T03:59:22.496Z,21.13
2017-04-13T04:00:03.074Z,21.21
2017-04-13T04:00:43.657Z,21.17
2017-04-13T04:01:24.238Z,21.16
2017-04-13T04:02:04.819Z,21.04
2017-04-13T04:02:45.426Z,21.16
2017-04-13T04:03:25.998Z,21.04
2017-04-13T04:04:07.554Z,21.14
2017-04-13T04:04:48.589Z,21.16
2017-04-13T04:05:29.175Z,21.09
2017-04-13T04:06:09.763Z,21.13
2017-04-13T04:07:47.126Z,21.16
2017-04-13T04:08:27.710Z,21.03
2017-04-13T04:09:08.295Z,21.04
2017-04-13T04:09:48.862Z,21.09
2017-04-13T04:10:29.454Z,21.09
2017-04-13T04:11:10.027Z,21.1
2017-04-13T04:11:50.617Z,21.07
2017-04-13T04:12:31.195Z,21.07
2017-04-13T04:13:11.780Z,21.07
2017-04-13T04:14:02.873Z,21.07
2017-04-13T04:14:43.454Z,20.94
2017-04-13T04:15:24.040Z,21.04
2017-04-13T04:16:04.625Z,21.01
2017-04-13T04:16:45.199Z,20.99
2017-04-13T04:17:25.783Z,20.99
2017-04-13T04:18:06.363Z,20.97
2017-04-13T04:18:46.936Z,20.98
2017-04-13T04:19:27.514Z,20.99
2017-04-13T04:20:08.094Z,20.95
2017-04-13T04:20:48.664Z,20.99
2017-04-13T04:21:29.246Z,20.94
2017-04-13T04:22:09.811Z,20.98
2017-04-13T04:22:50.399Z,20.94
2017-04-13T04:23:30.988Z,20.95
2017-04-13T04:24:11.568Z,20.99
2017-04-13T04:24:52.146Z,20.92
2017-04-13T04:25:32.734Z,20.91
2017-04-13T04:26:13.322Z,20.94
2017-04-13T04:26:53.891Z,20.92
2017-04-13T04:27:34.482Z,20.92
2017-04-13T04:28:15.056Z,20.94
2017-04-13T04:28:55.643Z,20.99
2017-04-13T04:29:36.217Z,20.99
2017-04-13T04:30:16.802Z,20.94
2017-04-13T04:30:57.381Z,20.94
2017-04-13T04:31:37.962Z,20.99
2017-04-13T04:32:18.545Z,20.98
2017-04-13T04:32:59.133Z,20.94
2017-04-13T04:33:39.718Z,20.89
2017-04-13T04:34:20.300Z,21.03
2017-04-13T04:35:00.880Z,20.97
2017-04-13T04:35:41.462Z,20.95
2017-04-13T04:36:22.020Z,20.91
2017-04-13T04:37:17.528Z,20.94
2017-04-13T04:37:58.106Z,21.06
2017-04-13T04:38:38.682Z,20.99
2017-04-13T04:39:19.264Z,20.94
2017-04-13T04:39:59.842Z,20.99
2017-04-13T04:41:37.188Z,20.91
2017-04-13T04:42:17.776Z,20.95
2017-04-13T04:42:58.353Z,20.99
2017-04-13T04:43:38.937Z,20.97
2017-04-13T04:44:19.520Z,20.97
2017-04-13T04:45:00.095Z,20.97
2017-04-13T04:45:40.670Z,20.92
2017-04-13T04:46:21.254Z,20.95
2017-04-13T04:47:01.838Z,20.98
2017-04-13T04:47:42.409Z,20.99
2017-04-13T04:48:37.950Z,20.99
2017-04-13T04:49:18.535Z,21.01
2017-04-13T04:49:59.113Z,21.03
2017-04-13T04:50:39.712Z,21.04
2017-04-13T04:51:20.298Z,21.04
2017-04-13T04:52:00.883Z,21.03
2017-04-13T04:52:41.458Z,21.06
2017-04-13T04:53:22.033Z,20.99
2017-04-13T04:54:02.610Z,21.03
2017-04-13T04:54:43.193Z,21.06
2017-04-13T04:55:23.782Z,21.03
2017-04-13T04:56:04.362Z,21.07
2017-04-13T04:56:44.942Z,20.98
2017-04-13T04:57:25.529Z,20.97
2017-04-13T04:58:06.112Z,21.07
2017-04-13T04:58:46.698Z,21.07
2017-04-13T04:59:27.277Z,21.04
2017-04-13T05:00:07.855Z,21.07
2017-04-13T05:00:48.420Z,21.06
2017-04-13T05:01:29.019Z,21.09
2017-04-13T05:02:09.594Z,20.95
2017-04-13T05:02:50.177Z,21.07
2017-04-13T05:03:30.758Z,21.09
2017-04-13T05:04:11.331Z,21.03
2017-04-13T05:04:51.901Z,21.09
2017-04-13T05:05:32.489Z,21.03
2017-04-13T05:06:13.063Z,21.06
2017-04-13T05:06:53.643Z,21.06
2017-04-13T05:07:34.233Z,21.06
2017-04-13T05:08:14.817Z,21.03
2017-04-13T05:08:55.395Z,20.97
2017-04-13T05:09:35.991Z,20.98
2017-04-13T05:10:16.579Z,20.98
2017-04-13T05:10:57.164Z,20.97
2017-04-13T05:11:37.748Z,20.92
2017-04-13T05:12:18.332Z,20.97
2017-04-13T05:12:58.909Z,20.94
2017-04-13T05:13:39.491Z,20.97
2017-04-13T05:14:20.073Z,20.94
2017-04-13T05:15:00.657Z,20.99
2017-04-13T05:15:41.238Z,20.92
2017-04-13T05:16:21.813Z,20.92
2017-04-13T05:17:02.392Z,20.99
2017-04-13T05:17:42.977Z,20.97
2017-04-13T05:18:23.558Z,20.95
2017-04-13T05:19:04.170Z,20.92
2017-04-13T05:19:44.724Z,20.92
2017-04-13T05:20:25.307Z,20.95
2017-04-13T05:21:05.893Z,20.95
2017-04-13T05:21:46.479Z,20.88
2017-04-13T05:22:27.065Z,20.88
2017-04-13T05:23:07.653Z,20.94
2017-04-13T05:23:48.243Z,20.88
2017-04-13T05:24:28.826Z,20.94
2017-04-13T05:25:09.403Z,20.88
2017-04-13T05:25:49.981Z,20.84
2017-04-13T05:26:30.564Z,20.94
2017-04-13T05:27:11.148Z,20.91
2017-04-13T05:27:51.717Z,20.91
2017-04-13T05:28:32.299Z,20.88
2017-04-13T05:29:12.880Z,20.85
2017-04-13T05:29:53.462Z,20.89
2017-04-13T05:30:34.048Z,20.88
2017-04-13T05:31:14.632Z,20.85
2017-04-13T05:31:55.215Z,20.87
2017-04-13T05:32:35.803Z,20.88
2017-04-13T05:34:13.742Z,20.85
2017-04-13T05:34:54.339Z,20.89
2017-04-13T05:35:50.754Z,20.91
2017-04-13T05:36:31.337Z,20.97
2017-04-13T05:37:11.906Z,20.89
2017-04-13T05:37:52.501Z,20.94
2017-04-13T05:38:33.080Z,20.98
2017-04-13T05:39:13.693Z,20.94
2017-04-13T05:39:54.236Z,20.95
2017-04-13T05:40:34.816Z,20.97
2017-04-13T05:41:15.398Z,20.97
2017-04-13T05:41:55.978Z,21.03
2017-04-13T05:42:36.555Z,21.06
2017-04-13T05:43:17.133Z,21.01
2017-04-13T05:43:57.717Z,21.04
2017-04-13T05:44:38.303Z,21.06
2017-04-13T05:45:18.881Z,20.99
2017-04-13T05:45:59.468Z,21.04
2017-04-13T05:46:40.049Z,21.09
2017-04-13T05:47:20.622Z,21.01
2017-04-13T05:49:13.234Z,21.21
2017-04-13T05:49:53.813Z,21.13
2017-04-13T05:50:34.400Z,21.21
2017-04-13T05:51:14.992Z,21.25
2017-04-13T05:51:55.565Z,21.22
2017-04-13T05:52:36.156Z,21.34
2017-04-13T05:53:16.738Z,21.19
2017-04-13T05:53:57.317Z,21.34
2017-04-13T05:54:37.898Z,21.28
2017-04-13T05:55:18.488Z,21.34
2017-04-13T05:55:59.070Z,21.29
2017-04-13T05:56:39.650Z,21.28
2017-04-13T05:57:20.229Z,21.31
2017-04-13T05:58:00.809Z,21.34
2017-04-13T05:58:41.388Z,21.37
2017-04-13T05:59:21.968Z,21.34
2017-04-13T06:00:02.549Z,21.28
2017-04-13T06:01:55.165Z,21.35
2017-04-13T06:02:35.738Z,21.32
2017-04-13T06:03:16.322Z,21.22
2017-04-13T06:03:56.908Z,21.28
2017-04-13T06:04:37.484Z,21.25
2017-04-13T06:05:18.065Z,21.16
2017-04-13T06:05:58.657Z,21.22
2017-04-13T06:06:39.230Z,21.16
2017-04-13T06:07:19.811Z,21.19
2017-04-13T06:08:00.386Z,21.09
2017-04-13T06:08:40.963Z,21.09
2017-04-13T06:09:21.557Z,21.07
2017-04-13T06:10:02.124Z,21.14
2017-04-13T06:10:42.711Z,21.01
2017-04-13T06:11:23.283Z,21.06
2017-04-13T06:12:03.868Z,21.01
2017-04-13T06:12:44.450Z,20.98
2017-04-13T06:13:25.036Z,20.99
2017-04-13T06:14:05.615Z,20.95
2017-04-13T06:14:46.190Z,20.98
2017-04-13T06:15:26.774Z,20.95
2017-04-13T06:16:07.355Z,20.91
2017-04-13T06:16:47.935Z,20.98
2017-04-13T06:17:28.512Z,21.03
2017-04-13T06:18:09.091Z,21.01
2017-04-13T06:18:49.675Z,21.09
2017-04-13T06:19:30.250Z,21.13
2017-04-13T06:20:10.826Z,21.09
2017-04-13T06:20:51.412Z,21.1
2017-04-13T06:21:36.940Z,21.22
2017-04-13T06:22:17.523Z,21.22
2017-04-13T06:22:58.090Z,21.27
2017-04-13T06:23:38.674Z,21.32
2017-04-13T06:24:19.258Z,21.29
2017-04-13T06:24:59.834Z,21.34
2017-04-13T06:25:40.417Z,21.37
2017-04-13T06:26:20.995Z,21.38
2017-04-13T06:27:01.577Z,21.47
2017-04-13T06:27:42.162Z,21.5
2017-04-13T06:28:22.750Z,21.53
2017-04-13T06:29:03.344Z,21.61
2017-04-13T06:29:43.914Z,21.65
2017-04-13T06:30:24.494Z,21.71
2017-04-13T06:32:17.344Z,21.69
2017-04-13T06:32:57.920Z,21.8
2017-04-13T06:33:38.508Z,21.79
2017-04-13T06:34:19.094Z,21.8
2017-04-13T06:34:59.671Z,21.84
2017-04-13T06:35:40.242Z,21.9
2017-04-13T06:36:20.835Z,21.94
2017-04-13T06:37:01.405Z,21.96
2017-04-13T06:37:41.989Z,22.05
2017-04-13T06:38:22.566Z,22.09
2017-04-13T06:39:03.143Z,22.07
2017-04-13T06:39:43.731Z,22.22
2017-04-13T06:40:24.315Z,22.28
2017-04-13T06:41:04.897Z,22.25
2017-04-13T06:41:45.481Z,22.3
2017-04-13T06:42:26.061Z,22.27
2017-04-13T06:43:06.648Z,22.25
2017-04-13T06:43:47.231Z,22.3
2017-04-13T06:44:27.816Z,22.21
2017-04-13T06:46:05.172Z,22.17
2017-04-13T06:46:45.759Z,22.25
2017-04-13T06:47:26.333Z,22.24
2017-04-13T06:48:06.915Z,22.15
2017-04-13T06:48:47.495Z,22.14
2017-04-13T06:49:28.076Z,22.17
2017-04-13T06:50:08.658Z,22.15
2017-04-13T06:50:49.233Z,22.1
2017-04-13T06:51:29.818Z,22.12
2017-04-13T06:52:10.397Z,22.03
2017-04-13T06:52:50.981Z,22.03
2017-04-13T06:53:31.552Z,22
2017-04-13T06:54:12.149Z,21.99
2017-04-13T06:54:52.728Z,22.02
2017-04-13T06:55:33.313Z,21.92
2017-04-13T06:56:13.902Z,21.92
2017-04-13T06:56:54.477Z,21.98
2017-04-13T06:57:35.063Z,21.92
2017-04-13T06:58:15.644Z,21.9
2017-04-13T06:58:56.214Z,21.94
2017-04-13T06:59:36.796Z,21.96
2017-04-13T07:00:17.380Z,21.96
2017-04-13T07:00:57.963Z,21.86
2017-04-13T07:01:38.542Z,21.92
2017-04-13T07:02:19.122Z,21.9
2017-04-13T07:02:59.699Z,21.82
2017-04-13T07:03:40.288Z,21.74
2017-04-13T07:04:20.872Z,21.77
2017-04-13T07:05:01.460Z,21.69
2017-04-13T07:05:42.042Z,21.8
2017-04-13T07:06:22.619Z,21.67
2017-04-13T07:07:03.208Z,21.68
2017-04-13T07:07:43.789Z,21.72
2017-04-13T07:09:31.804Z,21.68
2017-04-13T07:10:12.384Z,21.69
2017-04-13T07:10:52.971Z,21.69
2017-04-13T07:11:33.551Z,21.67
2017-04-13T07:12:14.139Z,21.67
2017-04-13T07:12:54.725Z,21.74
2017-04-13T07:13:35.305Z,21.68
2017-04-13T07:14:15.887Z,21.79
2017-04-13T07:14:56.473Z,21.69
2017-04-13T07:15:37.057Z,21.79
2017-04-13T07:16:17.631Z,21.75
2017-04-13T07:16:58.212Z,21.77
2017-04-13T07:17:38.798Z,21.82
2017-04-13T07:18:19.381Z,21.71
2017-04-13T07:18:59.957Z,21.88
2017-04-13T07:19:40.540Z,21.84
2017-04-13T07:20:21.123Z,21.92
2017-04-13T07:21:01.708Z,21.9
2017-04-13T07:21:42.288Z,21.9
2017-04-13T07:22:22.870Z,21.91
2017-04-13T07:23:03.457Z,21.91
2017-04-13T07:23:44.035Z,21.92
2017-04-13T07:24:24.612Z,22
2017-04-13T07:25:05.195Z,22.02
2017-04-13T07:25:45.784Z,22.02
2017-04-13T07:26:26.366Z,22.02
2017-04-13T07:27:06.952Z,22.05
2017-04-13T07:27:47.524Z,22.06
2017-04-13T07:28:28.108Z,22.12
2017-04-13T07:29:08.694Z,22.12
2017-04-13T07:29:49.269Z,22.22
2017-04-13T07:30:29.868Z,22.18
2017-04-13T07:31:10.436Z,22.12
2017-04-13T07:31:51.029Z,22.12
2017-04-13T07:32:31.616Z,22.15
2017-04-13T07:33:12.194Z,22.15
2017-04-13T07:33:52.777Z,22.15
2017-04-13T07:34:33.365Z,22.12
2017-04-13T07:35:13.948Z,22.17
2017-04-13T07:36:51.312Z,22.17
2017-04-13T07:37:31.902Z,22.17
2017-04-13T07:38:27.064Z,22.15
2017-04-13T07:39:07.650Z,22.14
2017-04-13T07:39:48.226Z,22.2
2017-04-13T07:40:28.813Z,22.1
2017-04-13T07:41:09.399Z,22.14
2017-04-13T07:41:49.991Z,21.99
2017-04-13T07:42:30.561Z,22.06
2017-04-13T07:43:11.139Z,22
2017-04-13T07:43:51.732Z,21.98
2017-04-13T07:44:32.299Z,22.03
2017-04-13T07:45:12.871Z,22.02
2017-04-13T07:45:53.455Z,21.98
2017-04-13T07:46:34.035Z,21.96
2017-04-13T07:47:14.616Z,21.98
2017-04-13T07:47:55.197Z,21.99
2017-04-13T07:48:35.777Z,21.98
2017-04-13T07:49:16.355Z,22.02
2017-04-13T07:49:56.947Z,22.02
2017-04-13T07:50:37.526Z,22.12
2017-04-13T07:51:18.116Z,22.12
2017-04-13T07:51:58.702Z,22.22
2017-04-13T07:52:39.289Z,22.37
2017-04-13T07:53:19.873Z,22.42
2017-04-13T07:54:00.462Z,22.65
2017-04-13T07:54:41.049Z,23.09
2017-04-13T07:55:21.632Z,23.33
2017-04-13T07:56:02.216Z,23.79
2017-04-13T07:56:42.802Z,24.6
2017-04-13T07:57:23.392Z,24.4
2017-04-13T07:58:03.984Z,24.49
2017-04-13T07:58:44.542Z,24.37
2017-04-13T07:59:25.135Z,24.4
2017-04-13T08:00:05.717Z,24.39
2017-04-13T08:00:46.296Z,24.39
2017-04-13T08:01:26.876Z,24.37
2017-04-13T08:02:07.463Z,24.4
2017-04-13T08:02:48.036Z,24.37
2017-04-13T08:03:28.628Z,24.43
2017-04-13T08:05:21.239Z,24.52
2017-04-13T08:06:01.812Z,24.39
2017-04-13T08:06:42.398Z,24.4
2017-04-13T08:07:22.987Z,24.39
2017-04-13T08:08:03.568Z,24.28
2017-04-13T08:08:44.153Z,24.22
2017-04-13T08:09:24.734Z,24.21
2017-04-13T08:10:05.316Z,24.2
2017-04-13T08:10:45.906Z,24.2
2017-04-13T08:11:26.485Z,24.13
2017-04-13T08:12:07.059Z,24.03
2017-04-13T08:12:47.636Z,23.94
2017-04-13T08:13:28.225Z,23.88
2017-04-13T08:14:08.802Z,23.9
2017-04-13T08:14:49.381Z,23.88
2017-04-13T08:15:29.967Z,23.97
2017-04-13T08:16:10.553Z,23.94
2017-04-13T08:16:51.137Z,23.94
2017-04-13T08:17:31.717Z,24.03
2017-04-13T08:18:12.306Z,24.02
2017-04-13T08:18:52.891Z,24.02
2017-04-13T08:19:33.472Z,24.08
2017-04-13T08:20:14.045Z,24.16
2017-04-13T08:20:54.630Z,24.13
2017-04-13T08:21:35.204Z,24.18
2017-04-13T08:22:15.787Z,24.21
2017-04-13T08:22:56.380Z,24.27
2017-04-13T08:23:36.945Z,24.31
2017-04-13T08:24:17.523Z,24.46
2017-04-13T08:24:58.114Z,24.61
2017-04-13T08:25:38.701Z,24.58
2017-04-13T08:26:19.277Z,24.69
2017-04-13T08:26:59.851Z,24.76
2017-04-13T08:27:40.444Z,24.93
2017-04-13T08:28:21.031Z,24.96
2017-04-13T08:29:01.627Z,25.13
2017-04-13T08:29:42.209Z,25.17
2017-04-13T08:30:22.798Z,25.28
2017-04-13T08:31:03.385Z,25.5
2017-04-13T08:31:43.959Z,26.06
2017-04-13T08:32:24.537Z,25.99
2017-04-13T08:33:05.113Z,26.17
2017-04-13T08:33:45.700Z,27.1
2017-04-13T08:34:26.276Z,27.32
2017-04-13T08:35:06.846Z,27.79
2017-04-13T08:35:47.434Z,27.94
2017-04-13T08:36:28.024Z,27.74
2017-04-13T08:37:08.615Z,27.9
2017-04-13T08:37:49.201Z,27.69
2017-04-13T08:38:29.766Z,27.77
2017-04-13T08:39:10.342Z,27.7
2017-04-13T08:39:50.932Z,27.6
2017-04-13T08:40:31.519Z,27.46
2017-04-13T08:41:12.101Z,27.25
2017-04-13T08:41:52.677Z,27
2017-04-13T08:42:33.257Z,26.91
2017-04-13T08:43:28.750Z,26.73
2017-04-13T08:44:09.333Z,26.58
2017-04-13T08:44:49.925Z,26.6
2017-04-13T08:45:30.509Z,26.55
2017-04-13T08:46:11.096Z,26.85
2017-04-13T08:46:51.675Z,26.85
2017-04-13T08:47:32.267Z,26.8
2017-04-13T08:48:12.849Z,26.92
2017-04-13T08:48:53.431Z,26.84
2017-04-13T08:49:34.019Z,27.06
2017-04-13T08:50:14.609Z,26.95
2017-04-13T08:50:55.189Z,26.97
2017-04-13T08:51:35.776Z,27.06
2017-04-13T08:52:16.361Z,27.5
2017-04-13T08:52:56.932Z,27.5
2017-04-13T08:53:49.022Z,28.27
2017-04-13T08:54:29.612Z,27.9
2017-04-13T08:55:10.190Z,27.87
2017-04-13T08:55:50.777Z,27.72
2017-04-13T08:56:31.364Z,27.62
2017-04-13T08:57:11.949Z,27.46
2017-04-13T08:57:52.532Z,27.39
2017-04-13T08:58:33.118Z,27.18
2017-04-13T08:59:13.708Z,27.06
2017-04-13T08:59:54.295Z,26.97
2017-04-13T09:00:34.878Z,26.94
2017-04-13T09:01:15.448Z,26.85
2017-04-13T09:01:56.033Z,26.82
2017-04-13T09:02:36.619Z,26.76
2017-04-13T09:03:17.202Z,26.72
2017-04-13T09:03:57.790Z,26.75
2017-04-13T09:04:38.369Z,26.81
2017-04-13T09:05:18.946Z,26.8
2017-04-13T09:05:59.525Z,26.89
2017-04-13T09:06:40.117Z,27.02
2017-04-13T09:07:20.702Z,27.04
2017-04-13T09:08:01.290Z,27